Time;durP1;ratioP1;P1;durP2;ratioP2;P2;SDS_P1;SDS_P2;PMS_P1;PMS_P2;Temp;Humidity;BMP_temperature;BMP_pressure;BME280_temperature;BME280_humidity;BME280_pressure;Samples;Min_cycle;Max_cycle;Signal;HPM_P1;HPM_P2
2023/03/27 00:02:24;;;;;;;1.37;1.10;;;;;;;13.58;60.57;97928.97;4419535;32;34006;-64
2023/03/27 00:04:53;;;;;;;0.55;0.55;;;;;;;13.65;60.37;97936.19;4415039;32;33712;-63
2023/03/27 00:07:21;;;;;;;0.80;0.77;;;;;;;14.08;59.01;97924.94;4418457;32;33922;-63
2023/03/27 00:09:49;;;;;;;1.85;1.00;;;;;;;14.13;59.07;97922.53;4418955;32;33894;-65
2023/03/27 00:12:17;;;;;;;1.25;1.05;;;;;;;14.32;58.65;97923.88;4419302;32;33534;-62
2023/03/27 00:14:45;;;;;;;0.50;0.50;;;;;;;14.01;59.30;97924.81;4418481;32;33696;-63
2023/03/27 00:17:12;;;;;;;1.73;0.75;;;;;;;14.00;59.03;97915.09;4419385;32;33730;-62
2023/03/27 00:19:40;;;;;;;1.45;1.12;;;;;;;14.23;58.25;97912.34;4420155;32;33537;-63
2023/03/27 00:22:08;;;;;;;2.37;1.05;;;;;;;13.91;58.97;97908.09;4419709;32;33893;-66
2023/03/27 00:24:36;;;;;;;1.25;0.68;;;;;;;14.18;58.67;97909.38;4417615;32;33901;-61
2023/03/27 00:27:03;;;;;;;1.40;0.88;;;;;;;14.15;58.95;97899.78;4420920;32;35073;-62
2023/03/27 00:29:32;;;;;;;1.20;0.73;;;;;;;14.45;58.19;97895.31;4419542;32;31714;-61
2023/03/27 00:31:59;;;;;;;5.93;0.75;;;;;;;14.40;58.48;97886.94;4418450;32;34629;-63
2023/03/27 00:34:29;;;;;;;0.55;0.55;;;;;;;14.57;57.82;97884.94;4418568;32;35602;-62
2023/03/27 00:36:56;;;;;;;1.17;0.82;;;;;;;14.57;57.14;97886.78;4418101;32;33590;-61
2023/03/27 00:39:23;;;;;;;1.15;0.82;;;;;;;14.67;56.52;97890.91;4417938;32;32861;-61
2023/03/27 00:41:54;;;;;;;1.27;0.77;;;;;;;14.80;56.09;97884.00;4419319;32;33976;-62
2023/03/27 00:44:34;;;;;;;1.15;0.75;;;;;;;14.84;56.35;97874.53;4420286;32;34807;-62
2023/03/27 00:47:08;;;;;;;0.47;0.45;;;;;;;14.75;56.57;97873.81;4414050;32;32840;-62
2023/03/27 00:49:36;;;;;;;1.35;0.90;;;;;;;14.89;56.33;97877.50;4401677;32;34756;-64
2023/03/27 00:52:05;;;;;;;1.10;0.50;;;;;;;14.99;55.79;97869.13;4404434;32;33754;-61
2023/03/27 00:54:37;;;;;;;0.73;0.73;;;;;;;14.97;55.76;97869.31;4390297;32;34570;-61
2023/03/27 00:57:07;;;;;;;3.20;1.12;;;;;;;14.78;55.93;97859.97;4411591;32;34262;-61
2023/03/27 00:59:38;;;;;;;0.57;0.57;;;;;;;14.82;56.04;97855.88;4402937;32;33401;-61
2023/03/27 01:02:06;;;;;;;1.87;1.00;;;;;;;14.86;55.98;97848.25;4414940;32;34768;-61
2023/03/27 01:04:36;;;;;;;0.65;0.65;;;;;;;14.53;57.29;97848.66;4403461;32;33916;-62
2023/03/27 01:07:06;;;;;;;1.02;0.73;;;;;;;14.72;56.66;97843.72;4398180;32;34810;-64
2023/03/27 01:09:33;;;;;;;1.08;0.68;;;;;;;14.83;56.55;97835.16;4400512;32;34488;-62
2023/03/27 01:12:19;;;;;;;1.67;1.23;;;;;;;14.69;56.94;97834.16;4409388;32;32448;-62
2023/03/27 01:15:03;;;;;;;2.25;1.42;;;;;;;14.82;57.11;97831.63;4398162;32;33850;-64
2023/03/27 01:17:48;;;;;;;0.83;0.83;;;;;;;14.85;56.94;97836.63;4401809;32;33350;-61
2023/03/27 01:20:15;;;;;;;1.48;0.85;;;;;;;15.00;56.21;97825.84;4402671;32;33033;-63
2023/03/27 01:23:22;;;;;;;1.02;0.73;;;;;;;14.91;56.36;97829.66;4415706;32;33575;-61
2023/03/27 01:26:43;;;;;;;1.08;0.73;;;;;;;14.96;56.00;97821.87;4416493;32;34913;-62
2023/03/27 01:29:20;;;;;;;1.37;0.88;;;;;;;14.87;56.88;97820.31;4412969;32;34619;-61
2023/03/27 01:32:09;;;;;;;1.45;1.00;;;;;;;14.93;56.45;97819.56;4412636;32;33365;-61
2023/03/27 01:34:46;;;;;;;0.52;0.52;;;;;;;14.89;56.23;97802.94;4416722;32;34683;-61
2023/03/27 01:37:55;;;;;;;0.75;0.68;;;;;;;14.76;55.97;97805.44;4416558;32;35245;-61
2023/03/27 01:40:31;;;;;;;0.85;0.75;;;;;;;14.52;56.71;97803.91;4415291;32;34556;-62
2023/03/27 01:42:59;;;;;;;0.60;0.60;;;;;;;14.52;56.53;97795.00;4416243;32;33349;-63
2023/03/27 01:45:35;;;;;;;0.65;0.60;;;;;;;14.59;56.42;97798.63;4418294;32;34744;-60
2023/03/27 01:48:12;;;;;;;0.85;0.82;;;;;;;14.54;57.06;97792.94;4401485;32;33930;-61
2023/03/27 01:50:51;;;;;;;1.35;0.95;;;;;;;14.60;57.13;97793.03;4392862;32;33680;-63
2023/03/27 01:53:52;;;;;;;1.37;1.17;;;;;;;14.70;56.88;97783.81;4406410;32;32820;-61
2023/03/27 01:56:26;;;;;;;0.88;0.73;;;;;;;14.79;56.32;97780.84;4363829;32;33971;-61
2023/03/27 01:59:02;;;;;;;1.10;0.80;;;;;;;14.64;56.37;97777.34;4402025;32;35099;-61
2023/03/27 02:01:35;;;;;;;1.00;0.88;;;;;;;14.69;56.03;97780.31;4402970;32;34720;-63
2023/03/27 02:04:06;;;;;;;0.90;0.85;;;;;;;14.73;55.88;97788.84;4411136;32;32141;-60
2023/03/27 02:06:39;;;;;;;0.95;0.82;;;;;;;14.67;56.40;97785.06;4415284;32;34872;-61
2023/03/27 02:09:27;;;;;;;1.73;0.82;;;;;;;14.43;56.57;97786.16;4408293;32;33774;-62
2023/03/27 02:12:16;;;;;;;2.75;1.08;;;;;;;14.53;56.23;97788.59;4403843;32;33806;-62
2023/03/27 02:14:58;;;;;;;1.37;0.82;;;;;;;14.56;55.61;97790.91;4405017;32;34365;-62
2023/03/27 02:17:49;;;;;;;0.62;0.50;;;;;;;14.14;56.38;97779.75;4395541;32;33669;-61
2023/03/27 02:20:17;;;;;;;1.37;1.23;;;;;;;13.56;58.24;97784.03;4412093;32;32655;-61
2023/03/27 02:22:47;;;;;;;0.65;0.60;;;;;;;13.80;57.25;97766.81;4401058;32;33789;-62
2023/03/27 02:25:37;;;;;;;1.10;0.95;;;;;;;14.11;56.62;97750.53;4416738;32;33325;-60
2023/03/27 02:28:43;;;;;;;0.65;0.65;;;;;;;14.03;58.13;97747.97;4403990;32;33047;-61
2023/03/27 02:31:27;;;;;;;0.50;0.50;;;;;;;13.97;58.38;97736.06;4390387;32;33884;-61
2023/03/27 02:34:23;;;;;;;0.30;0.30;;;;;;;14.03;58.04;97730.97;4401851;32;33466;-62
2023/03/27 02:37:16;;;;;;;0.57;0.57;;;;;;;14.01;58.28;97717.72;4413495;32;34496;-60
2023/03/27 02:39:54;;;;;;;0.60;0.60;;;;;;;13.71;59.59;97716.88;4402763;32;33866;-62
2023/03/27 02:42:31;;;;;;;0.40;0.40;;;;;;;14.26;57.84;97710.19;4403403;32;33907;-63
2023/03/27 02:45:30;;;;;;;0.52;0.50;;;;;;;14.37;57.51;97695.41;4410650;32;33869;-64
2023/03/27 02:48:10;;;;;;;0.95;0.85;;;;;;;14.52;56.91;97700.78;4410847;32;34296;-64
2023/03/27 02:50:52;;;;;;;1.10;0.62;;;;;;;14.62;56.34;97693.25;4402883;32;32603;-63
2023/03/27 02:53:22;;;;;;;0.50;0.50;;;;;;;14.53;56.50;97697.91;4398081;32;33760;-64
2023/03/27 02:55:56;;;;;;;0.45;0.40;;;;;;;14.38;56.91;97684.47;4401133;32;33359;-64
2023/03/27 02:58:29;;;;;;;2.35;0.95;;;;;;;14.38;57.33;97686.28;4398033;32;33213;-63
2023/03/27 03:00:58;;;;;;;0.50;0.50;;;;;;;14.54;56.81;97679.88;4400417;32;32928;-61
2023/03/27 03:03:43;;;;;;;0.62;0.57;;;;;;;14.62;56.48;97680.59;4398520;32;33238;-63
2023/03/27 03:06:13;;;;;;;0.40;0.40;;;;;;;14.68;56.18;97679.03;4398503;32;34608;-61
2023/03/27 03:08:41;;;;;;;0.68;0.50;;;;;;;14.64;56.43;97677.75;4399109;32;33312;-61
2023/03/27 03:11:12;;;;;;;0.50;0.50;;;;;;;14.68;56.26;97668.25;4399496;32;34020;-61
2023/03/27 03:13:40;;;;;;;0.43;0.40;;;;;;;14.59;56.61;97672.09;4411286;32;33302;-61
2023/03/27 03:16:08;;;;;;;2.35;0.93;;;;;;;14.47;57.15;97669.00;4402982;32;33685;-60
2023/03/27 03:18:36;;;;;;;0.98;0.73;;;;;;;14.47;56.80;97670.88;4401006;32;33062;-62
2023/03/27 03:21:04;;;;;;;0.50;0.50;;;;;;;14.64;56.30;97667.81;4400425;32;34836;-61
2023/03/27 03:23:32;;;;;;;1.08;0.77;;;;;;;14.70;56.15;97670.72;4403719;32;35511;-63
2023/03/27 03:26:01;;;;;;;1.30;0.68;;;;;;;14.68;55.95;97671.78;4399093;32;33688;-63
2023/03/27 03:28:33;;;;;;;1.30;0.95;;;;;;;14.73;55.77;97670.34;4409179;32;33508;-63
2023/03/27 03:31:01;;;;;;;0.30;0.30;;;;;;;14.72;55.67;97672.22;4403664;32;34914;-61
2023/03/27 03:33:30;;;;;;;0.62;0.62;;;;;;;14.69;55.74;97664.53;4400228;32;32963;-60
2023/03/27 03:35:59;;;;;;;0.45;0.45;;;;;;;14.56;56.22;97670.59;4401498;32;33666;-61
2023/03/27 03:38:28;;;;;;;1.33;0.93;;;;;;;14.57;56.21;97666.88;4401190;32;33891;-61
2023/03/27 03:41:05;;;;;;;0.52;0.52;;;;;;;14.60;56.23;97671.06;4402502;32;33943;-62
2023/03/27 03:43:33;;;;;;;0.73;0.73;;;;;;;14.65;56.06;97674.03;4402767;32;35518;-63
2023/03/27 03:46:00;;;;;;;1.35;1.05;;;;;;;14.60;56.18;97673.75;4400536;32;34688;-63
2023/03/27 03:48:28;;;;;;;1.90;1.25;;;;;;;14.57;56.24;97664.19;4400032;32;33383;-63
2023/03/27 03:50:56;;;;;;;2.22;0.95;;;;;;;14.56;56.36;97662.53;4400427;32;34974;-62
2023/03/27 03:53:24;;;;;;;1.35;0.82;;;;;;;14.68;55.99;97662.88;4412136;32;34071;-62
2023/03/27 03:55:52;;;;;;;1.60;0.90;;;;;;;14.52;56.22;97657.72;4403616;32;33486;-64
2023/03/27 03:58:20;;;;;;;1.85;0.75;;;;;;;14.64;56.02;97662.41;4418609;32;31729;-62
2023/03/27 04:01:03;;;;;;;1.65;0.82;;;;;;;14.58;55.57;97660.50;4412227;32;33912;-59
2023/03/27 04:03:31;;;;;;;1.05;0.70;;;;;;;14.39;56.00;97661.06;4416532;32;33737;-60
2023/03/27 04:06:06;;;;;;;2.17;0.95;;;;;;;14.42;55.80;97658.84;4417222;32;34164;-61
2023/03/27 04:08:34;;;;;;;0.55;0.55;;;;;;;14.40;56.04;97665.41;4416534;32;34560;-60
2023/03/27 04:11:03;;;;;;;1.77;1.10;;;;;;;14.34;56.24;97653.56;4414113;32;35541;-60
2023/03/27 04:13:31;;;;;;;5.25;1.02;;;;;;;14.25;56.83;97654.69;4419612;32;33804;-60
2023/03/27 04:16:00;;;;;;;0.77;0.77;;;;;;;14.45;56.17;97657.62;4418663;32;32494;-61
2023/03/27 04:18:31;;;;;;;7.47;1.40;;;;;;;14.28;56.62;97658.84;4419110;32;34719;-61
2023/03/27 04:21:00;;;;;;;2.00;1.40;;;;;;;14.35;56.46;97659.75;4417705;32;34376;-61
2023/03/27 04:23:30;;;;;;;1.37;1.02;;;;;;;14.12;57.13;97655.34;4417016;32;33731;-63
2023/03/27 04:25:59;;;;;;;2.15;1.35;;;;;;;14.04;57.33;97663.53;4418394;32;34915;-62
2023/03/27 04:28:33;;;;;;;1.27;0.90;;;;;;;14.16;56.99;97655.84;4419551;32;34325;-61
2023/03/27 04:31:05;;;;;;;5.57;1.52;;;;;;;14.20;56.70;97657.12;4416220;32;33785;-59
2023/03/27 04:33:38;;;;;;;1.95;1.20;;;;;;;14.12;57.35;97657.22;4417910;32;32580;-63
2023/03/27 04:36:08;;;;;;;0.98;0.85;;;;;;;14.25;57.03;97652.00;4414983;32;33234;-62
2023/03/27 04:38:38;;;;;;;0.95;0.73;;;;;;;14.36;56.33;97650.69;4417379;32;33073;-60
2023/03/27 04:41:06;;;;;;;2.30;1.10;;;;;;;14.31;56.58;97645.84;4416720;32;33701;-61
2023/03/27 04:43:39;;;;;;;1.10;1.00;;;;;;;14.28;56.53;97643.53;4418713;32;32770;-60
2023/03/27 04:46:07;;;;;;;1.58;1.08;;;;;;;14.37;56.37;97649.66;4419332;32;34949;-60
2023/03/27 04:48:37;;;;;;;1.95;1.48;;;;;;;14.12;57.17;97644.59;4395839;32;34180;-63
2023/03/27 04:51:08;;;;;;;2.60;1.60;;;;;;;14.29;56.82;97641.72;4415828;32;33720;-62
2023/03/27 04:53:36;;;;;;;1.20;0.95;;;;;;;14.28;56.55;97648.09;4417466;32;33904;-62
2023/03/27 04:56:05;;;;;;;1.85;1.27;;;;;;;14.25;56.56;97646.59;4420140;32;34004;-60
2023/03/27 04:58:33;;;;;;;1.23;0.95;;;;;;;13.92;57.40;97638.97;4416186;32;33335;-62
2023/03/27 05:01:05;;;;;;;1.12;1.00;;;;;;;14.07;56.69;97638.13;4413786;32;34832;-61
2023/03/27 05:03:37;;;;;;;1.48;1.20;;;;;;;14.12;56.92;97638.37;4412409;32;34890;-60
2023/03/27 05:06:07;;;;;;;1.65;1.00;;;;;;;13.92;57.63;97635.44;4416743;32;33026;-62
2023/03/27 05:08:36;;;;;;;5.00;0.85;;;;;;;14.02;57.75;97627.91;4416443;32;33558;-63
2023/03/27 05:11:03;;;;;;;1.37;1.00;;;;;;;14.07;57.36;97627.38;4415612;32;33963;-61
2023/03/27 05:13:35;;;;;;;1.08;0.77;;;;;;;13.97;57.95;97616.91;4417881;32;33811;-61
2023/03/27 05:16:03;;;;;;;0.93;0.68;;;;;;;13.90;58.16;97627.59;4416852;32;32970;-61
2023/03/27 05:18:34;;;;;;;1.87;0.60;;;;;;;14.18;57.28;97621.50;4418063;32;34837;-61
2023/03/27 05:21:03;;;;;;;0.93;0.65;;;;;;;14.14;57.47;97617.53;4414049;32;33222;-61
2023/03/27 05:23:31;;;;;;;1.80;0.82;;;;;;;13.83;57.94;97617.75;4417296;32;34856;-63
2023/03/27 05:25:59;;;;;;;0.90;0.62;;;;;;;13.89;57.60;97619.69;4416673;32;32500;-60
2023/03/27 05:28:33;;;;;;;0.68;0.55;;;;;;;14.17;56.96;97617.97;4413205;32;34216;-62
2023/03/27 05:31:00;;;;;;;0.90;0.77;;;;;;;13.92;57.44;97627.38;4409665;32;32802;-60
2023/03/27 05:33:29;;;;;;;0.85;0.70;;;;;;;14.16;56.86;97608.25;4409435;32;35186;-62
2023/03/27 05:35:56;;;;;;;0.60;0.60;;;;;;;14.25;56.53;97622.41;4411732;32;33940;-62
2023/03/27 05:38:25;;;;;;;1.25;0.90;;;;;;;14.39;55.88;97618.84;4414437;32;33340;-61
2023/03/27 05:40:54;;;;;;;2.12;1.15;;;;;;;14.30;56.84;97619.16;4416510;32;33908;-65
2023/03/27 05:43:23;;;;;;;3.70;1.33;;;;;;;14.41;56.50;97616.81;4414928;32;33919;-63
2023/03/27 05:45:50;;;;;;;3.40;1.60;;;;;;;14.44;56.42;97619.12;4413590;32;32613;-62
2023/03/27 05:48:19;;;;;;;2.05;1.08;;;;;;;14.44;56.44;97616.41;4412581;32;34555;-61
2023/03/27 05:50:46;;;;;;;1.37;1.27;;;;;;;14.24;57.32;97611.84;4412719;32;34922;-63
2023/03/27 05:53:14;;;;;;;6.60;1.65;;;;;;;14.24;57.13;97609.97;4418516;32;34314;-62
2023/03/27 05:55:43;;;;;;;1.35;1.10;;;;;;;14.13;57.41;97608.63;4414088;32;33867;-62
2023/03/27 05:58:12;;;;;;;1.95;1.30;;;;;;;14.28;57.06;97608.56;4415949;32;32993;-62
2023/03/27 06:00:43;;;;;;;2.17;1.48;;;;;;;14.36;56.56;97602.25;4413348;32;31503;-62
2023/03/27 06:03:12;;;;;;;0.90;0.82;;;;;;;14.29;57.04;97596.78;4412560;32;35172;-61
2023/03/27 06:05:41;;;;;;;1.77;1.45;;;;;;;14.21;57.15;97600.41;4413697;32;33844;-61
2023/03/27 06:08:11;;;;;;;0.82;0.80;;;;;;;14.11;57.69;97597.19;4417211;32;32144;-62
2023/03/27 06:10:40;;;;;;;1.45;0.90;;;;;;;14.24;57.40;97595.69;4416397;32;33942;-63
2023/03/27 06:13:11;;;;;;;2.28;1.50;;;;;;;14.12;57.69;97596.16;4414958;32;33889;-62
2023/03/27 06:15:43;;;;;;;6.22;1.02;;;;;;;14.31;57.05;97591.22;4415906;32;33923;-62
2023/03/27 06:18:13;;;;;;;0.57;0.57;;;;;;;14.09;57.28;97582.28;4415575;32;34124;-63
2023/03/27 06:20:41;;;;;;;1.75;1.15;;;;;;;14.00;57.62;97581.56;4416215;32;33343;-62
2023/03/27 06:23:09;;;;;;;0.40;0.40;;;;;;;14.31;56.63;97583.97;4416744;32;32862;-64
2023/03/27 06:25:38;;;;;;;0.98;0.73;;;;;;;14.38;56.40;97584.03;4417464;32;33839;-65
2023/03/27 06:28:08;;;;;;;1.20;1.10;;;;;;;14.44;56.23;97588.66;4416602;32;33992;-61
2023/03/27 06:30:37;;;;;;;1.45;1.17;;;;;;;14.28;56.98;97584.34;4415827;32;33504;-65
2023/03/27 06:33:08;;;;;;;1.12;0.93;;;;;;;14.32;56.88;97579.44;4409107;32;33924;-62
2023/03/27 06:35:36;;;;;;;1.95;1.40;;;;;;;14.34;56.70;97580.06;4414066;32;32747;-63
2023/03/27 06:38:05;;;;;;;1.17;0.85;;;;;;;14.39;56.40;97581.16;4414371;32;36056;-62
2023/03/27 06:40:34;;;;;;;0.75;0.75;;;;;;;14.27;56.90;97587.25;4417520;32;34645;-62
2023/03/27 06:43:07;;;;;;;1.75;0.93;;;;;;;14.44;56.57;97588.66;4414162;32;34074;-62
2023/03/27 06:45:47;;;;;;;0.52;0.52;;;;;;;14.47;56.29;97585.56;4418054;32;34947;-63
2023/03/27 06:48:18;;;;;;;0.90;0.73;;;;;;;14.51;56.29;97588.75;4411842;32;33301;-61
2023/03/27 06:50:50;;;;;;;5.43;1.33;;;;;;;14.55;56.01;97584.66;4415769;32;33500;-63
2023/03/27 06:53:19;;;;;;;1.30;0.90;;;;;;;14.56;55.82;97589.84;4415029;32;33885;-61
2023/03/27 06:55:50;;;;;;;1.75;1.25;;;;;;;14.62;55.71;97590.94;4417670;32;34979;-61
2023/03/27 06:58:17;;;;;;;0.88;0.65;;;;;;;14.59;56.11;97596.72;4415970;32;33302;-61
2023/03/27 07:00:48;;;;;;;0.73;0.73;;;;;;;14.56;56.29;97595.22;4416726;32;33852;-60
2023/03/27 07:03:22;;;;;;;0.70;0.60;;;;;;;14.36;56.41;97599.56;4412060;32;34369;-61
2023/03/27 07:05:52;;;;;;;0.30;0.30;;;;;;;14.66;55.67;97603.81;4413836;32;34891;-61
2023/03/27 07:08:20;;;;;;;4.18;0.60;;;;;;;14.42;55.84;97606.88;4416982;32;33408;-61
2023/03/27 07:10:53;;;;;;;0.40;0.40;;;;;;;14.48;55.38;97608.78;4416977;32;35011;-65
2023/03/27 07:13:23;;;;;;;0.88;0.77;;;;;;;14.55;55.33;97612.41;4414542;32;32814;-63
2023/03/27 07:15:52;;;;;;;0.85;0.82;;;;;;;14.41;55.37;97605.19;4411592;32;35068;-63
2023/03/27 07:18:21;;;;;;;0.68;0.65;;;;;;;14.47;55.51;97603.59;4410564;32;34531;-62
2023/03/27 07:20:49;;;;;;;0.82;0.65;;;;;;;14.14;56.73;97604.06;4413884;32;34522;-62
2023/03/27 07:23:17;;;;;;;1.02;0.70;;;;;;;14.32;56.56;97606.34;4424162;32;33659;-62
2023/03/27 07:25:48;;;;;;;2.42;1.77;;;;;;;14.28;56.80;97610.41;4428434;32;33927;-63
2023/03/27 07:28:19;;;;;;;13.50;1.52;;;;;;;14.45;56.52;97599.25;4416230;32;31875;-62
2023/03/27 07:30:47;;;;;;;2.75;0.95;;;;;;;14.51;56.40;97608.44;4418519;32;34944;-62
2023/03/27 07:33:19;;;;;;;1.58;1.10;;;;;;;14.29;57.39;97601.34;4420263;32;34048;-62
2023/03/27 07:35:47;;;;;;;1.80;0.98;;;;;;;14.15;58.01;97598.47;4417033;32;34108;-62
2023/03/27 07:38:17;;;;;;;1.17;0.88;;;;;;;14.32;57.25;97601.78;4418259;32;32745;-62
2023/03/27 07:40:51;;;;;;;7.87;1.60;;;;;;;14.26;57.36;97617.88;4418190;32;34884;-61
2023/03/27 07:43:20;;;;;;;0.57;0.57;;;;;;;14.39;56.84;97618.84;4417178;32;33037;-64
2023/03/27 07:45:48;;;;;;;0.95;0.70;;;;;;;13.89;58.41;97619.69;4420491;32;33857;-63
2023/03/27 07:48:17;;;;;;;0.77;0.60;;;;;;;14.17;57.92;97620.66;4417553;32;32245;-62
2023/03/27 07:50:45;;;;;;;0.95;0.75;;;;;;;13.72;59.02;97624.44;4419044;32;33840;-62
2023/03/27 07:53:13;;;;;;;0.62;0.62;;;;;;;13.70;59.07;97611.16;4416961;32;34693;-62
2023/03/27 07:56:02;;;;;;;1.40;0.85;;;;;;;14.06;57.76;97613.09;4415631;32;32650;-61
2023/03/27 07:58:31;;;;;;;0.35;0.35;;;;;;;13.89;58.29;97606.25;4419779;32;33175;-62
2023/03/27 08:00:59;;;;;;;1.10;0.75;;;;;;;13.67;58.45;97606.16;4421133;32;33616;-62
2023/03/27 08:03:29;;;;;;;0.55;0.55;;;;;;;12.90;60.02;97609.13;4421364;32;33157;-62
2023/03/27 08:05:59;;;;;;;0.80;0.73;;;;;;;12.80;59.68;97600.47;4418003;32;33903;-64
2023/03/27 08:08:28;;;;;;;0.70;0.57;;;;;;;12.43;60.78;97610.19;4421469;32;33429;-61
2023/03/27 08:10:56;;;;;;;0.85;0.85;;;;;;;11.89;62.58;97610.16;4416166;32;32583;-61
2023/03/27 08:13:25;;;;;;;0.60;0.60;;;;;;;12.26;62.20;97624.69;4411446;32;34864;-63
2023/03/27 08:16:16;;;;;;;0.80;0.73;;;;;;;12.95;60.33;97632.75;4420555;32;34674;-63
2023/03/27 08:18:45;;;;;;;1.12;0.77;;;;;;;13.03;60.10;97638.91;4420902;32;33969;-61
2023/03/27 08:21:13;;;;;;;8.18;1.40;;;;;;;13.15;59.68;97638.44;4418516;32;33656;-61
2023/03/27 08:23:41;;;;;;;0.70;0.60;;;;;;;13.35;59.07;97634.22;4418939;32;34964;-61
2023/03/27 08:26:14;;;;;;;1.05;0.95;;;;;;;13.61;58.41;97647.25;4418224;32;33106;-61
2023/03/27 08:28:44;;;;;;;1.05;0.98;;;;;;;13.06;59.96;97651.09;4413699;32;33938;-61
2023/03/27 08:31:14;;;;;;;0.70;0.68;;;;;;;13.62;58.02;97635.47;4414604;32;33664;-62
2023/03/27 08:33:42;;;;;;;1.23;1.15;;;;;;;13.79;57.74;97628.03;4417636;32;33794;-61
2023/03/27 08:36:10;;;;;;;2.00;1.48;;;;;;;13.97;57.14;97630.34;4420618;32;33293;-61
2023/03/27 08:38:38;;;;;;;1.42;0.85;;;;;;;13.91;57.67;97636.47;4420677;32;33143;-61
2023/03/27 08:41:06;;;;;;;0.40;0.40;;;;;;;13.26;60.38;97640.72;4419775;32;34639;-61
2023/03/27 08:43:40;;;;;;;0.62;0.62;;;;;;;13.73;59.13;97645.75;4419804;32;34007;-64
2023/03/27 08:46:19;;;;;;;1.65;1.25;;;;;;;13.83;58.86;97655.38;4400247;32;33838;-63
2023/03/27 08:49:03;;;;;;;1.65;1.05;;;;;;;13.53;59.72;97658.09;4398450;32;33131;-61
2023/03/27 08:51:41;;;;;;;2.17;0.77;;;;;;;13.74;58.95;97652.81;4399599;32;34853;-62
2023/03/27 08:54:15;;;;;;;0.57;0.57;;;;;;;13.68;59.38;97661.63;4406146;32;33582;-61
2023/03/27 08:56:44;;;;;;;1.55;1.00;;;;;;;13.46;60.05;97655.28;4415525;32;32651;-61
2023/03/27 08:59:14;;;;;;;0.70;0.70;;;;;;;13.72;59.37;97662.06;4418638;32;33337;-61
2023/03/27 09:01:56;;;;;;;2.10;1.20;;;;;;;13.75;58.94;97656.34;4404826;32;35435;-61
2023/03/27 09:04:27;;;;;;;0.95;0.70;;;;;;;13.51;59.34;97650.22;4404114;32;32816;-61
2023/03/27 09:07:04;;;;;;;0.62;0.60;;;;;;;13.48;59.50;97655.09;4403266;32;33598;-63
2023/03/27 09:09:54;;;;;;;0.60;0.60;;;;;;;13.45;59.60;97653.63;4420754;32;32970;-63
2023/03/27 09:12:32;;;;;;;1.10;0.85;;;;;;;13.39;59.52;97653.53;4412284;32;33881;-60
2023/03/27 09:15:08;;;;;;;0.77;0.77;;;;;;;13.34;59.30;97651.38;4404676;32;32407;-65
2023/03/27 09:17:40;;;;;;;1.35;1.05;;;;;;;12.99;60.87;97656.38;4419252;32;33830;-61
2023/03/27 09:20:08;;;;;;;1.25;1.05;;;;;;;12.65;62.36;97655.97;4402605;32;34635;-64
2023/03/27 09:22:42;;;;;;;0.50;0.50;;;;;;;12.85;61.15;97661.72;4418970;32;33203;-61
2023/03/27 09:25:36;;;;;;;0.50;0.50;;;;;;;12.46;62.01;97652.75;4400320;32;34038;-61
2023/03/27 09:28:14;;;;;;;0.47;0.40;;;;;;;12.12;63.25;97647.75;4404555;32;32469;-60
2023/03/27 09:30:42;;;;;;;0.80;0.75;;;;;;;12.59;62.34;97652.16;4419519;32;34313;-62
2023/03/27 09:33:11;;;;;;;1.17;0.82;;;;;;;12.23;64.00;97649.19;4421261;32;32575;-63
2023/03/27 09:35:40;;;;;;;0.68;0.68;;;;;;;12.50;62.19;97651.38;4415255;32;32523;-60
2023/03/27 09:38:34;;;;;;;2.28;1.20;;;;;;;11.91;64.96;97655.53;4418331;32;33507;-61
2023/03/27 09:41:06;;;;;;;2.08;1.35;;;;;;;11.68;66.11;97666.16;4409577;32;33108;-65
2023/03/27 09:44:05;;;;;;;1.65;1.40;;;;;;;10.94;68.96;97668.94;4417169;32;33247;-61
2023/03/27 09:46:35;;;;;;;1.55;1.23;;;;;;;11.31;68.16;97672.94;4413798;32;32704;-61
2023/03/27 09:49:10;;;;;;;3.17;1.33;;;;;;;11.19;69.51;97675.13;4403823;32;33982;-64
2023/03/27 09:51:44;;;;;;;1.62;1.52;;;;;;;11.52;68.75;97677.75;4414528;32;35763;-61
2023/03/27 09:54:16;;;;;;;2.08;1.50;;;;;;;12.11;66.00;97683.63;4415199;32;33687;-63
2023/03/27 09:56:50;;;;;;;0.93;0.90;;;;;;;11.99;66.57;97682.31;4417652;32;33989;-61
2023/03/27 09:59:31;;;;;;;1.55;1.15;;;;;;;12.08;66.17;97683.97;4418683;32;33855;-61
2023/03/27 10:02:19;;;;;;;1.65;1.23;;;;;;;12.08;66.36;97690.16;4391576;32;34071;-61
2023/03/27 10:04:58;;;;;;;2.25;1.55;;;;;;;11.85;66.84;97691.94;4401258;32;36623;-65
2023/03/27 10:07:26;;;;;;;3.35;2.35;;;;;;;12.55;64.43;97700.00;4414464;32;34050;-61
2023/03/27 10:10:05;;;;;;;1.62;1.23;;;;;;;12.26;65.10;97702.47;4416118;32;35295;-61
2023/03/27 10:12:34;;;;;;;3.00;2.05;;;;;;;12.39;64.56;97709.97;4414051;32;33422;-62
2023/03/27 10:15:04;;;;;;;1.73;1.42;;;;;;;12.12;65.27;97712.09;4413058;32;34792;-61
2023/03/27 10:17:38;;;;;;;1.00;0.88;;;;;;;11.65;66.24;97712.88;4405374;32;33639;-63
2023/03/27 10:20:12;;;;;;;4.25;1.83;;;;;;;12.21;64.63;97716.41;4405296;32;34817;-62
2023/03/27 10:22:41;;;;;;;2.08;1.10;;;;;;;12.44;64.47;97716.47;4403871;32;33547;-63
2023/03/27 10:25:17;;;;;;;1.67;1.40;;;;;;;11.53;66.26;97706.22;4416518;32;33354;-61
2023/03/27 10:27:45;;;;;;;1.20;0.82;;;;;;;11.95;65.59;97710.50;4418830;32;34978;-61
2023/03/27 10:30:26;;;;;;;2.80;1.20;;;;;;;12.12;64.96;97720.16;4417981;32;32083;-62
2023/03/27 10:32:54;;;;;;;1.00;0.90;;;;;;;12.98;62.00;97721.84;4413688;32;34448;-61
2023/03/27 10:35:35;;;;;;;0.98;0.93;;;;;;;13.02;61.64;97717.78;4416051;32;34844;-61
2023/03/27 10:38:13;;;;;;;0.57;0.57;;;;;;;13.12;60.92;97730.13;4403561;32;32656;-63
2023/03/27 10:40:43;;;;;;;1.00;0.73;;;;;;;13.42;60.15;97739.16;4419916;32;33398;-64
2023/03/27 10:43:25;;;;;;;1.00;0.90;;;;;;;13.40;59.46;97730.44;4403756;32;33599;-63
2023/03/27 10:46:05;;;;;;;1.10;0.90;;;;;;;13.26;59.98;97740.13;4403851;32;33381;-61
2023/03/27 10:48:59;;;;;;;1.02;0.93;;;;;;;13.24;59.70;97745.66;4402493;32;34024;-61
2023/03/27 10:51:43;;;;;;;2.53;1.58;;;;;;;13.12;59.93;97743.56;4416764;32;33704;-63
2023/03/27 10:54:30;;;;;;;2.08;1.55;;;;;;;13.23;59.34;97722.47;4398411;32;33367;-61
2023/03/27 10:57:08;;;;;;;1.35;0.88;;;;;;;12.86;60.34;97746.59;4397014;32;33704;-61
2023/03/27 11:00:12;;;;;;;1.98;1.25;;;;;;;12.96;59.95;97742.66;4396321;32;34132;-61
2023/03/27 11:02:46;;;;;;;1.00;0.80;;;;;;;12.48;61.12;97749.16;4392400;32;34038;-64
2023/03/27 11:05:18;;;;;;;1.90;1.08;;;;;;;12.88;59.70;97749.94;4399943;32;34515;-61
2023/03/27 11:07:51;;;;;;;2.10;1.45;;;;;;;13.15;58.58;97753.94;4400776;32;33673;-64
2023/03/27 11:10:23;;;;;;;6.07;2.87;;;;;;;12.57;61.08;97743.56;4397736;32;34198;-61
2023/03/27 11:12:55;;;;;;;2.08;1.30;;;;;;;12.67;61.24;97737.97;4399476;32;33825;-61
2023/03/27 11:15:27;;;;;;;23.48;3.67;;;;;;;12.44;62.27;97739.78;4393238;32;33044;-61
2023/03/27 11:18:13;;;;;;;1.48;1.33;;;;;;;11.41;66.42;97744.06;4395514;32;33799;-60
2023/03/27 11:21:00;;;;;;;8.63;4.05;;;;;;;11.63;65.73;97739.84;4400322;32;33877;-61
2023/03/27 11:23:34;;;;;;;1.58;1.33;;;;;;;11.30;67.95;97752.47;4397559;32;34631;-60
2023/03/27 11:26:04;;;;;;;8.75;5.03;;;;;;;10.67;69.75;97750.38;4399394;32;34292;-61
2023/03/27 11:28:42;;;;;;;4.95;3.60;;;;;;;10.51;70.01;97748.50;4400389;32;34284;-62
2023/03/27 11:31:31;;;;;;;3.92;2.95;;;;;;;10.31;71.17;97766.66;4401161;32;35264;-62
2023/03/27 11:34:06;;;;;;;7.20;4.85;;;;;;;10.48;71.38;97760.34;4402966;32;32518;-61
2023/03/27 11:36:54;;;;;;;5.05;3.28;;;;;;;10.31;71.00;97757.81;4403283;32;32418;-62
2023/03/27 11:39:38;;;;;;;2.58;2.08;;;;;;;10.22;72.55;97767.59;4400334;32;34725;-62
2023/03/27 11:42:30;;;;;;;2.20;1.70;;;;;;;10.22;71.90;97771.09;4400874;32;33913;-66
2023/03/27 11:45:03;;;;;;;6.60;3.65;;;;;;;10.19;72.09;97763.38;4384956;32;33755;-65
2023/03/27 11:48:05;;;;;;;7.53;3.05;;;;;;;10.13;72.94;97773.88;4397434;32;106662;-64
2023/03/27 11:50:41;;;;;;;7.00;4.62;;;;;;;10.07;72.89;97769.19;4406681;32;32591;-61
2023/03/27 11:53:27;;;;;;;5.82;4.45;;;;;;;10.35;72.00;97762.66;4408775;32;33787;-61
2023/03/27 11:56:14;;;;;;;6.05;4.57;;;;;;;10.19;72.54;97778.59;4419549;32;34056;-61
2023/03/27 11:58:46;;;;;;;3.67;3.20;;;;;;;10.53;71.62;97764.38;4416417;32;31911;-60
2023/03/27 12:01:26;;;;;;;5.90;3.50;;;;;;;10.40;71.98;97770.16;4404857;32;33526;-63
2023/03/27 12:04:08;;;;;;;3.42;2.50;;;;;;;10.09;72.55;97767.19;4405534;32;33991;-61
2023/03/27 12:06:42;;;;;;;5.18;3.15;;;;;;;9.74;72.75;97774.34;4401457;32;35051;-60